Time;durP1;ratioP1;P1;durP2;ratioP2;P2;SDS_P1;SDS_P2;PMS_P1;PMS_P2;Temp;Humidity;BMP_temperature;BMP_pressure;BME280_temperature;BME280_humidity;BME280_pressure;Samples;Min_cycle;Max_cycle;Signal;HPM_P1;HPM_P2
2023/02/27 00:02:02;;;;;;;5.50;2.60;;;;;;;-2.65;82.82;102057.08;108708;1256;61765;-77
2023/02/27 00:04:29;;;;;;;5.00;2.20;;;;;;;-2.65;82.83;102059.16;108821;1256;59004;-77
2023/02/27 00:06:56;;;;;;;5.00;2.50;;;;;;;-2.66;82.76;102055.89;108725;1257;75527;-77
2023/02/27 00:09:23;;;;;;;5.00;2.50;;;;;;;-2.66;82.86;102057.46;108909;1256;71497;-77
2023/02/27 00:11:50;;;;;;;6.60;2.40;;;;;;;-2.67;82.94;102057.83;108880;1256;73079;-77
2023/02/27 00:14:17;;;;;;;6.00;2.60;;;;;;;-2.67;83.15;102056.98;108771;1256;60740;-77
2023/02/27 00:16:44;;;;;;;5.50;2.10;;;;;;;-2.68;83.26;102055.97;108798;1256;59372;-77
2023/02/27 00:19:12;;;;;;;7.30;2.60;;;;;;;-2.69;83.22;102059.14;108716;1256;73551;-77
2023/02/27 00:21:40;;;;;;;5.70;2.20;;;;;;;-2.71;83.18;102056.58;108855;1257;71315;-77
2023/02/27 00:24:07;;;;;;;5.60;2.30;;;;;;;-2.73;83.20;102056.82;108849;1256;72212;-77
2023/02/27 00:26:34;;;;;;;6.60;2.60;;;;;;;-2.74;83.33;102059.83;108807;1257;61715;-77
2023/02/27 00:29:01;;;;;;;5.90;2.40;;;;;;;-2.75;83.32;102055.70;108896;1257;60106;-77
2023/02/27 00:31:28;;;;;;;5.30;2.40;;;;;;;-2.75;83.59;102061.77;108787;1260;74341;-77
2023/02/27 00:33:55;;;;;;;7.10;2.60;;;;;;;-2.75;83.65;102059.53;108910;1256;71300;-77
2023/02/27 00:36:22;;;;;;;6.10;2.30;;;;;;;-2.76;83.52;102063.00;108615;1256;73580;-77
2023/02/27 00:38:49;;;;;;;5.30;2.40;;;;;;;-2.76;83.58;102059.20;108817;1256;60461;-77
2023/02/27 00:41:17;;;;;;;6.00;2.40;;;;;;;-2.77;83.58;102056.64;108840;1256;59493;-77
2023/02/27 00:43:44;;;;;;;4.90;2.30;;;;;;;-2.78;83.62;102056.35;108674;1256;75317;-77
2023/02/27 00:46:11;;;;;;;7.10;2.60;;;;;;;-2.80;83.61;102051.73;108857;1256;69664;-77
2023/02/27 00:48:38;;;;;;;4.20;2.20;;;;;;;-2.81;83.57;102053.86;108766;1257;70905;-77
2023/02/27 00:51:05;;;;;;;6.20;2.30;;;;;;;-2.84;83.70;102056.88;108795;1256;60733;-77
2023/02/27 00:53:32;;;;;;;5.20;2.50;;;;;;;-2.87;83.77;102057.68;108693;1259;59985;-77
2023/02/27 00:55:59;;;;;;;7.10;3.10;;;;;;;-2.90;83.93;102060.20;108558;1256;73734;-77
2023/02/27 00:58:26;;;;;;;6.90;3.00;;;;;;;-2.93;84.08;102059.80;108834;1260;71128;-77
2023/02/27 01:00:53;;;;;;;5.90;3.10;;;;;;;-2.95;84.52;102064.73;108777;1256;72329;-77
2023/02/27 01:03:21;;;;;;;8.50;3.50;;;;;;;-2.97;84.66;102063.92;108821;1256;60881;-77
2023/02/27 01:05:47;;;;;;;8.90;3.40;;;;;;;-2.98;85.02;102064.30;108739;1256;60078;-77
2023/02/27 01:08:16;;;;;;;6.50;2.70;;;;;;;-2.98;84.93;102068.46;108718;1256;74017;-77
2023/02/27 01:10:43;;;;;;;6.70;3.30;;;;;;;-2.99;84.75;102069.55;108728;1256;71110;-77
2023/02/27 01:13:10;;;;;;;7.10;3.20;;;;;;;-2.99;85.12;102067.65;108811;1256;71113;-77
2023/02/27 01:15:37;;;;;;;8.10;3.60;;;;;;;-2.99;85.07;102062.97;108693;1258;62460;-77
2023/02/27 01:18:04;;;;;;;8.30;3.40;;;;;;;-2.98;85.22;102062.08;108704;1256;59632;-77
2023/02/27 01:20:31;;;;;;;7.50;3.70;;;;;;;-2.97;85.27;102063.41;108863;1257;74854;-77
2023/02/27 01:22:59;;;;;;;6.60;3.40;;;;;;;-2.97;85.41;102057.01;108757;1256;70193;-77
2023/02/27 01:25:26;;;;;;;6.90;3.50;;;;;;;-2.96;85.37;102057.66;108759;1256;71287;-77
2023/02/27 01:27:53;;;;;;;7.20;3.70;;;;;;;-2.96;85.28;102060.61;108861;1257;61026;-77
2023/02/27 01:30:20;;;;;;;8.60;3.70;;;;;;;-2.98;85.52;102057.05;108696;1256;59144;-77
2023/02/27 01:32:48;;;;;;;7.90;3.80;;;;;;;-3.00;85.74;102053.65;108752;1256;73126;-77
2023/02/27 01:35:15;;;;;;;7.70;3.90;;;;;;;-3.02;86.03;102054.92;108777;1256;70131;-77
2023/02/27 01:37:42;;;;;;;10.20;4.40;;;;;;;-3.03;86.26;102055.33;108801;1256;73462;-77
2023/02/27 01:40:09;;;;;;;11.70;3.90;;;;;;;-3.04;86.47;102051.88;108696;1257;60412;-77
2023/02/27 01:42:36;;;;;;;6.10;3.50;;;;;;;-3.05;86.30;102051.21;108774;1259;59130;-77
2023/02/27 01:45:28;;;;;;;7.70;3.50;;;;;;;-3.06;86.43;102050.38;108873;1257;73711;-77
2023/02/27 01:48:02;;;;;;;8.90;3.80;;;;;;;-3.05;86.31;102053.16;108869;1257;70073;-77
2023/02/27 01:50:29;;;;;;;6.30;3.50;;;;;;;-3.07;86.18;102054.38;108860;1257;72350;-77
2023/02/27 01:53:00;;;;;;;8.10;3.80;;;;;;;-3.08;86.28;102049.77;108708;1259;61876;-77
2023/02/27 01:55:29;;;;;;;7.90;3.60;;;;;;;-3.09;86.51;102052.05;108868;1257;59334;-77
2023/02/27 01:57:56;;;;;;;7.70;3.70;;;;;;;-3.10;86.47;102045.89;108761;1257;73160;-77
2023/02/27 02:00:24;;;;;;;7.50;4.10;;;;;;;-3.13;86.41;102048.20;108861;1256;70941;-77
2023/02/27 02:03:19;;;;;;;6.30;3.50;;;;;;;-3.15;86.37;102051.77;108749;1256;70703;-77
2023/02/27 02:05:52;;;;;;;8.60;4.40;;;;;;;-3.19;86.76;102054.13;108878;1259;61736;-77
2023/02/27 02:08:24;;;;;;;8.90;3.80;;;;;;;-3.20;86.80;102056.77;108884;1257;59091;-77
2023/02/27 02:10:53;;;;;;;6.50;3.70;;;;;;;-3.23;86.86;102057.57;108776;1256;72190;-77
2023/02/27 02:13:21;;;;;;;7.50;3.70;;;;;;;-3.25;87.15;102055.23;108896;1256;68729;-78
2023/02/27 02:16:00;;;;;;;6.50;3.60;;;;;;;-3.27;87.12;102053.02;108832;1256;71457;-77
2023/02/27 02:18:52;;;;;;;12.20;3.90;;;;;;;-3.27;87.37;102054.41;108855;1259;59466;-77
2023/02/27 02:21:38;;;;;;;8.80;3.60;;;;;;;-3.28;87.34;102052.34;108900;1257;59349;-77
2023/02/27 02:24:26;;;;;;;9.90;4.10;;;;;;;-3.28;87.33;102047.70;108847;1256;73152;-77
2023/02/27 02:27:17;;;;;;;11.60;4.50;;;;;;;-3.29;87.55;102047.88;108833;1256;70109;-77
2023/02/27 02:30:17;;;;;;;6.90;4.20;;;;;;;-3.30;87.73;102047.58;108818;1259;71550;-77
2023/02/27 02:33:09;;;;;;;8.10;4.30;;;;;;;-3.30;87.59;102047.94;108830;1259;60755;-77
2023/02/27 02:36:07;;;;;;;9.20;4.40;;;;;;;-3.31;87.71;102047.45;108839;1256;59120;-77
2023/02/27 02:39:11;;;;;;;9.60;4.80;;;;;;;-3.31;87.70;102049.88;108749;1259;74699;-77
2023/02/27 02:42:09;;;;;;;7.00;4.20;;;;;;;-3.33;87.75;102046.48;108725;1257;71346;-77
2023/02/27 02:44:50;;;;;;;8.80;3.90;;;;;;;-3.35;87.95;102042.23;108872;1256;72395;-77
2023/02/27 02:47:44;;;;;;;11.90;4.20;;;;;;;-3.37;87.86;102036.60;108852;1256;61033;-77
2023/02/27 02:50:20;;;;;;;8.20;3.60;;;;;;;-3.39;87.96;102035.94;108853;1260;59050;-77
2023/02/27 02:52:54;;;;;;;6.30;3.90;;;;;;;-3.40;87.90;102035.14;108852;1256;73430;-77
2023/02/27 02:55:33;;;;;;;7.70;4.50;;;;;;;-3.41;87.96;102036.73;108724;1257;69726;-77
2023/02/27 02:58:23;;;;;;;7.00;3.90;;;;;;;-3.44;88.09;102035.45;108762;1258;72396;-78
2023/02/27 03:01:01;;;;;;;10.40;3.60;;;;;;;-3.47;87.94;102037.27;108701;1259;60932;-78
2023/02/27 03:03:45;;;;;;;7.30;3.70;;;;;;;-3.49;88.07;102039.05;108759;1258;61480;-78
2023/02/27 03:06:28;;;;;;;8.30;3.50;;;;;;;-3.49;88.20;102043.20;108880;1259;73793;-77
2023/02/27 03:09:10;;;;;;;9.60;3.40;;;;;;;-3.49;88.27;102042.00;108924;1256;72085;-78
2023/02/27 03:11:40;;;;;;;7.30;3.30;;;;;;;-3.49;88.34;102040.96;108835;1260;71112;-78
2023/02/27 03:14:12;;;;;;;6.20;3.00;;;;;;;-3.49;88.44;102041.32;108844;1257;60466;-77
2023/02/27 03:16:46;;;;;;;9.20;4.00;;;;;;;-3.50;88.42;102042.36;108790;1256;60289;-77
2023/02/27 03:19:21;;;;;;;6.90;3.20;;;;;;;-3.49;88.52;102047.03;108747;1257;72096;-78
2023/02/27 03:22:10;;;;;;;7.40;3.40;;;;;;;-3.50;88.54;102050.33;108897;1256;69668;-78
2023/02/27 03:25:08;;;;;;;7.00;3.60;;;;;;;-3.49;88.48;102053.58;108883;1259;72305;-78
2023/02/27 03:27:42;;;;;;;6.80;3.10;;;;;;;-3.50;88.47;102062.77;108794;1256;60479;-77
2023/02/27 03:30:29;;;;;;;6.40;3.70;;;;;;;-3.52;88.73;102064.57;108869;1256;59190;-77
2023/02/27 03:33:03;;;;;;;6.40;3.70;;;;;;;-3.54;88.86;102069.83;108831;1256;73499;-77
2023/02/27 03:36:02;;;;;;;10.60;4.00;;;;;;;-3.58;88.89;102067.55;108885;1256;72256;-77
2023/02/27 03:38:39;;;;;;;8.60;4.00;;;;;;;-3.63;88.62;102069.97;108846;1257;72386;-78
2023/02/27 03:41:06;;;;;;;7.40;3.80;;;;;;;-3.66;88.38;102069.74;108870;1257;61719;-78
2023/02/27 03:43:43;;;;;;;8.30;3.80;;;;;;;-3.67;88.46;102074.26;108772;1258;59072;-78
2023/02/27 03:46:16;;;;;;;6.60;3.70;;;;;;;-3.67;88.67;102069.41;108787;1256;74370;-78
2023/02/27 03:48:44;;;;;;;9.90;3.90;;;;;;;-3.67;88.71;102075.11;108743;1257;70142;-77
2023/02/27 03:51:15;;;;;;;9.30;4.00;;;;;;;-3.67;88.83;102072.70;108759;1256;71883;-77
2023/02/27 03:53:53;;;;;;;6.60;3.70;;;;;;;-3.67;88.83;102072.70;108863;1260;60455;-77
2023/02/27 03:56:28;;;;;;;8.60;4.00;;;;;;;-3.68;88.94;102074.09;108910;1256;59341;-78
2023/02/27 03:58:55;;;;;;;7.70;4.00;;;;;;;-3.68;88.94;102078.41;108870;1257;74384;-78
2023/02/27 04:01:22;;;;;;;10.30;4.40;;;;;;;-3.70;88.97;102075.87;108908;1256;69937;-78
2023/02/27 04:03:56;;;;;;;7.60;4.20;;;;;;;-3.71;89.15;102081.08;108725;1259;72206;-77
2023/02/27 04:09:36;;;;;;;8.40;4.40;;;;;;;-3.72;89.58;102085.96;108836;1256;58911;-78
2023/02/27 04:12:20;;;;;;;10.60;4.30;;;;;;;-3.70;89.73;102090.06;108869;1257;74188;-77
2023/02/27 04:15:15;;;;;;;11.30;4.70;;;;;;;-3.67;89.82;102090.14;108761;1262;70823;-77
2023/02/27 04:18:07;;;;;;;7.60;4.50;;;;;;;-3.63;90.04;102090.17;108725;1256;72993;-77
2023/02/27 04:20:42;;;;;;;9.70;4.30;;;;;;;-3.59;89.91;102092.31;108905;1257;60441;-78
2023/02/27 04:23:18;;;;;;;7.40;4.30;;;;;;;-3.56;90.07;102091.50;108893;1256;60032;-78
2023/02/27 04:26:11;;;;;;;8.10;4.50;;;;;;;-3.53;89.80;102091.59;108864;1259;74670;-78
2023/02/27 04:28:56;;;;;;;8.10;4.00;;;;;;;-3.50;89.81;102091.50;108885;1257;70913;-78
2023/02/27 04:31:40;;;;;;;8.10;4.00;;;;;;;-3.47;89.64;102094.18;108891;1257;71417;-78
2023/02/27 04:34:26;;;;;;;9.60;4.00;;;;;;;-3.46;89.40;102092.59;108883;1256;62093;-78
2023/02/27 04:37:01;;;;;;;8.30;4.10;;;;;;;-3.46;89.41;102091.04;108839;1258;59378;-78
2023/02/27 04:39:36;;;;;;;8.80;4.20;;;;;;;-3.48;89.33;102095.59;108871;1257;74957;-78
2023/02/27 04:42:13;;;;;;;8.60;4.50;;;;;;;-3.49;89.41;102094.58;108772;1258;69985;-78
2023/02/27 04:44:41;;;;;;;11.30;4.30;;;;;;;-3.51;89.22;102100.53;108809;1256;72761;-78
2023/02/27 04:47:11;;;;;;;8.70;4.10;;;;;;;-3.54;89.11;102098.55;108690;1259;61819;-78
2023/02/27 04:49:46;;;;;;;9.20;4.10;;;;;;;-3.58;89.30;102104.39;108838;1257;60143;-78
2023/02/27 04:52:19;;;;;;;7.00;4.20;;;;;;;-3.61;89.61;102102.91;108889;1256;74687;-78
2023/02/27 04:54:55;;;;;;;9.00;4.00;;;;;;;-3.63;89.64;102104.04;108748;1256;70908;-78
2023/02/27 04:57:33;;;;;;;13.50;4.30;;;;;;;-3.65;89.47;102106.00;108847;1256;73072;-78
2023/02/27 05:00:05;;;;;;;7.00;3.90;;;;;;;-3.67;89.80;102108.81;108860;1257;60457;-78
2023/02/27 05:02:42;;;;;;;9.30;4.20;;;;;;;-3.67;89.86;102110.40;108744;1256;59539;-78
2023/02/27 05:05:18;;;;;;;11.40;4.30;;;;;;;-3.69;89.94;102112.16;108817;1257;74740;-78
2023/02/27 05:07:58;;;;;;;7.90;4.40;;;;;;;-3.71;90.09;102114.12;108886;1256;69794;-78
2023/02/27 05:11:09;;;;;;;8.60;4.10;;;;;;;-3.72;90.41;102116.92;108862;1260;71698;-78
2023/02/27 05:13:51;;;;;;;10.70;4.40;;;;;;;-3.72;90.94;102113.81;108349;1265;59569;-78
2023/02/27 05:16:46;;;;;;;10.30;4.50;;;;;;;-3.72;90.81;102117.09;108352;1265;59638;-78
2023/02/27 05:19:13;;;;;;;8.00;4.10;;;;;;;-3.70;90.86;102117.36;108806;1257;73641;-78
2023/02/27 05:21:56;;;;;;;7.00;4.00;;;;;;;-3.66;90.86;102121.09;108756;1256;71139;-78
2023/02/27 05:24:49;;;;;;;9.50;4.10;;;;;;;-3.64;90.75;102125.83;108826;1257;71541;-78
2023/02/27 05:27:28;;;;;;;8.20;4.10;;;;;;;-3.61;90.80;102126.95;108890;1257;61959;-78
2023/02/27 05:30:11;;;;;;;7.50;4.30;;;;;;;-3.58;90.79;102127.20;108894;1256;59215;-78
2023/02/27 05:32:49;;;;;;;7.60;4.30;;;;;;;-3.55;91.19;102128.84;108860;1257;74790;-77
2023/02/27 05:35:25;;;;;;;7.70;4.40;;;;;;;-3.51;91.26;102128.70;108726;1256;70391;-78
2023/02/27 05:38:04;;;;;;;9.20;4.20;;;;;;;-3.46;91.21;102128.38;108863;1257;71001;-78
2023/02/27 05:40:40;;;;;;;9.00;4.70;;;;;;;-3.39;91.37;102127.81;108879;1257;60442;-78
2023/02/27 05:43:15;;;;;;;9.00;4.80;;;;;;;-3.30;91.55;102129.24;108716;1256;58945;-78
2023/02/27 05:45:44;;;;;;;10.50;4.70;;;;;;;-3.22;91.30;102134.70;108783;1257;73138;-78
2023/02/27 05:48:16;;;;;;;8.40;4.30;;;;;;;-3.14;91.48;102134.93;108787;1262;71319;-78
2023/02/27 05:50:49;;;;;;;11.50;4.40;;;;;;;-3.05;91.22;102132.04;108842;1257;71138;-78
2023/02/27 05:53:19;;;;;;;10.90;4.50;;;;;;;-2.96;91.31;102127.08;108800;1256;62169;-78
2023/02/27 05:55:47;;;;;;;10.70;4.50;;;;;;;-2.88;91.55;102129.55;108727;1257;59760;-78
2023/02/27 05:58:20;;;;;;;9.60;4.10;;;;;;;-2.79;91.32;102129.28;108749;1262;73520;-76
2023/02/27 06:01:04;;;;;;;12.20;4.40;;;;;;;-2.70;91.24;102131.71;108812;1257;70930;-78
2023/02/27 06:03:33;;;;;;;14.20;4.40;;;;;;;-2.62;90.87;102136.96;108735;1257;71325;-78
2023/02/27 06:06:03;;;;;;;9.50;4.10;;;;;;;-2.55;90.81;102137.95;108743;1257;60214;-77
2023/02/27 06:08:30;;;;;;;11.80;4.30;;;;;;;-2.48;90.81;102144.95;108880;1258;60045;-77
2023/02/27 06:10:58;;;;;;;10.20;5.20;;;;;;;-2.39;90.82;102144.83;108792;1259;73526;-77
2023/02/27 06:13:25;;;;;;;13.10;4.40;;;;;;;-2.29;90.62;102153.29;108760;1257;69553;-77
2023/02/27 06:15:53;;;;;;;9.60;4.40;;;;;;;-2.19;90.43;102157.42;108840;1257;72502;-77
2023/02/27 06:18:20;;;;;;;11.10;4.80;;;;;;;-2.09;90.40;102160.19;108686;1257;61648;-78
2023/02/27 06:20:47;;;;;;;9.90;4.50;;;;;;;-2.00;90.05;102165.04;108828;1257;60035;-78
2023/02/27 06:23:14;;;;;;;11.40;4.50;;;;;;;-1.92;89.85;102163.02;108814;1256;73620;-78
2023/02/27 06:25:41;;;;;;;11.20;4.60;;;;;;;-1.85;89.73;102162.57;108724;1262;69043;-77
2023/02/27 06:28:09;;;;;;;11.30;4.10;;;;;;;-1.76;89.65;102167.61;108764;1257;71777;-77
2023/02/27 06:30:36;;;;;;;11.90;4.40;;;;;;;-1.66;89.51;102174.33;108637;1262;61826;-78
2023/02/27 06:33:05;;;;;;;13.60;4.60;;;;;;;-1.55;89.48;102179.98;108828;1258;59238;-78
2023/02/27 06:35:34;;;;;;;11.70;4.90;;;;;;;-1.46;89.07;102181.69;108863;1256;73937;-78
2023/02/27 06:38:01;;;;;;;11.20;4.50;;;;;;;-1.36;88.92;102181.33;108852;1257;71765;-78
2023/02/27 06:40:28;;;;;;;10.10;4.60;;;;;;;-1.27;88.75;102181.45;108844;1257;73363;-78
2023/02/27 06:42:55;;;;;;;8.50;4.10;;;;;;;-1.19;88.10;102178.36;108848;1260;61684;-78
2023/02/27 06:45:23;;;;;;;9.60;4.10;;;;;;;-1.16;87.66;102176.69;108705;1257;60692;-78
2023/02/27 06:47:50;;;;;;;12.60;4.70;;;;;;;-1.12;87.70;102180.36;108850;1257;72938;-78
2023/02/27 06:50:17;;;;;;;12.40;4.90;;;;;;;-1.08;87.77;102182.61;108904;1257;69990;-78
2023/02/27 06:52:45;;;;;;;15.10;5.00;;;;;;;-1.04;87.29;102184.17;108850;1260;72901;-78
2023/02/27 06:55:18;;;;;;;11.60;5.30;;;;;;;-1.01;87.13;102184.58;108813;1257;60461;-78
2023/02/27 06:57:46;;;;;;;15.10;5.40;;;;;;;-0.97;87.02;102189.26;108884;1257;60392;-78
2023/02/27 07:00:14;;;;;;;14.20;5.60;;;;;;;-0.91;86.96;102188.48;108815;1257;73450;-78
2023/02/27 07:02:41;;;;;;;13.90;5.90;;;;;;;-0.85;86.74;102191.70;108748;1260;70141;-78
2023/02/27 07:05:10;;;;;;;12.60;4.80;;;;;;;-0.78;86.58;102197.20;108876;1257;73141;-78
2023/02/27 07:07:40;;;;;;;17.00;5.50;;;;;;;-0.74;86.02;102195.28;108730;1262;60495;-78
2023/02/27 07:10:10;;;;;;;13.20;5.10;;;;;;;-0.70;85.92;102196.14;108920;1259;59391;-78
2023/02/27 07:12:38;;;;;;;10.70;5.00;;;;;;;-0.66;85.92;102197.17;108762;1260;74845;-78
2023/02/27 07:15:06;;;;;;;13.90;5.30;;;;;;;-0.63;85.57;102196.54;108826;1258;69967;-78
2023/02/27 07:17:33;;;;;;;13.60;5.30;;;;;;;-0.56;85.96;102195.90;108705;1262;72837;-78
2023/02/27 07:20:00;;;;;;;15.80;5.00;;;;;;;-0.47;86.07;102200.36;108823;1260;62103;-78
2023/02/27 07:22:28;;;;;;;16.40;5.20;;;;;;;-0.37;85.71;102200.64;108674;1256;59222;-78
2023/02/27 07:24:55;;;;;;;14.40;5.00;;;;;;;-0.30;85.48;102202.23;108766;1258;73788;-78
2023/02/27 07:27:22;;;;;;;9.90;4.40;;;;;;;-0.25;85.05;102202.01;108799;1258;72218;-78
2023/02/27 07:29:49;;;;;;;15.30;4.80;;;;;;;-0.22;84.86;102200.33;108842;1257;71263;-78
2023/02/27 07:32:16;;;;;;;9.00;4.70;;;;;;;-0.21;84.67;102198.55;108776;1257;59656;-78
2023/02/27 07:34:44;;;;;;;11.30;4.60;;;;;;;-0.18;84.56;102200.50;108763;1257;60354;-78
2023/02/27 07:37:11;;;;;;;7.30;4.60;;;;;;;-0.15;84.52;102197.42;108901;1257;74360;-78
2023/02/27 07:39:39;;;;;;;9.30;4.40;;;;;;;-0.14;84.29;102197.88;108806;1257;69624;-78
2023/02/27 07:42:06;;;;;;;9.40;5.00;;;;;;;-0.10;84.46;102197.34;108759;1257;72811;-78
2023/02/27 07:44:33;;;;;;;8.60;4.90;;;;;;;-0.07;84.39;102197.74;108799;1257;59706;-78
2023/02/27 07:47:00;;;;;;;10.80;5.30;;;;;;;-0.09;83.93;102197.29;108565;1257;433235;-78
2023/02/27 07:49:27;;;;;;;9.50;4.50;;;;;;;-0.17;83.79;102202.89;108744;1263;73610;-78
2023/02/27 07:51:55;;;;;;;9.90;5.30;;;;;;;-0.21;84.14;102198.88;108878;1257;70275;-78
2023/02/27 07:54:22;;;;;;;9.20;4.70;;;;;;;-0.18;84.45;102200.16;108883;1259;71477;-78
2023/02/27 07:56:50;;;;;;;9.70;5.50;;;;;;;-0.14;84.81;102194.90;108847;1259;59648;-79
2023/02/27 07:59:17;;;;;;;7.60;4.90;;;;;;;-0.07;84.91;102192.85;108718;1257;59688;-78
2023/02/27 08:01:44;;;;;;;7.90;4.90;;;;;;;-0.01;84.66;102193.12;108878;1258;74965;-79
2023/02/27 08:04:11;;;;;;;8.10;4.60;;;;;;;0.03;84.52;102194.17;108899;1260;71875;-79
2023/02/27 08:06:40;;;;;;;9.80;4.60;;;;;;;0.04;84.52;102194.11;108831;1261;71395;-79
2023/02/27 08:09:09;;;;;;;7.90;4.50;;;;;;;0.04;84.35;102204.04;108329;1257;60111;-78
2023/02/27 08:11:36;;;;;;;9.80;4.90;;;;;;;0.06;84.41;102207.64;108882;1260;59948;-79
2023/02/27 08:14:03;;;;;;;7.50;4.30;;;;;;;0.03;84.11;102209.84;108721;1263;72268;-78
2023/02/27 08:16:32;;;;;;;9.70;4.50;;;;;;;0.01;84.22;102209.73;108884;1257;71585;-78
2023/02/27 08:18:59;;;;;;;8.70;4.30;;;;;;;0.06;84.23;102210.39;108917;1257;72673;-80
2023/02/27 08:21:28;;;;;;;7.50;4.50;;;;;;;0.15;84.24;102211.87;108887;1258;59717;-79
2023/02/27 08:23:55;;;;;;;7.10;3.80;;;;;;;0.28;84.20;102218.06;108803;1263;59008;-79
2023/02/27 08:26:23;;;;;;;10.20;4.50;;;;;;;0.44;83.88;102224.84;108845;1257;73500;-79
2023/02/27 08:28:50;;;;;;;7.70;4.40;;;;;;;0.66;84.18;102228.33;108808;1257;69739;-79
2023/02/27 08:31:17;;;;;;;10.20;4.40;;;;;;;0.86;83.37;102232.25;108777;1258;73115;-79
2023/02/27 08:33:44;;;;;;;7.30;4.00;;;;;;;0.99;82.72;102232.12;108755;1263;59237;-79
2023/02/27 08:36:12;;;;;;;7.20;4.30;;;;;;;1.10;82.64;102233.16;108737;1257;59093;-79
2023/02/27 08:38:39;;;;;;;7.90;4.00;;;;;;;1.19;82.27;102241.95;108780;1257;74656;-79
2023/02/27 08:41:06;;;;;;;7.80;4.30;;;;;;;1.32;82.41;102238.52;108747;1257;72607;-81
2023/02/27 08:43:33;;;;;;;8.00;4.40;;;;;;;1.47;82.58;102238.65;108761;1256;72432;-79
2023/02/27 08:46:01;;;;;;;11.00;4.30;;;;;;;1.63;82.37;102224.90;108890;1257;59982;-79
2023/02/27 08:48:28;;;;;;;8.40;4.60;;;;;;;1.73;81.23;102219.89;108787;1257;60371;-79
2023/02/27 08:50:55;;;;;;;9.50;4.40;;;;;;;1.79;81.10;102219.73;108841;1257;73236;-79
2023/02/27 08:53:24;;;;;;;11.20;4.90;;;;;;;1.86;80.70;102220.23;108780;1257;72450;-79
2023/02/27 08:55:52;;;;;;;10.60;5.00;;;;;;;1.94;80.94;102226.09;108774;1258;71250;-79
2023/02/27 08:58:19;;;;;;;11.50;5.00;;;;;;;2.09;80.97;102232.82;108797;1257;59945;-79
2023/02/27 09:00:47;;;;;;;11.20;5.30;;;;;;;2.23;80.85;102226.27;108894;1257;59401;-79
2023/02/27 09:03:14;;;;;;;8.30;4.20;;;;;;;2.37;80.09;102232.48;108767;1260;73688;-79
2023/02/27 09:05:47;;;;;;;6.90;4.30;;;;;;;2.49;80.16;102233.24;108782;1257;69649;-79
2023/02/27 09:08:14;;;;;;;7.70;3.80;;;;;;;2.61;79.45;102232.27;108844;1256;71149;-79
2023/02/27 09:10:41;;;;;;;8.40;3.80;;;;;;;2.67;79.20;102235.56;108827;1257;60913;-79
2023/02/27 09:13:11;;;;;;;8.60;4.50;;;;;;;2.76;79.22;102240.14;108902;1256;60500;-78
2023/02/27 09:15:39;;;;;;;7.10;3.40;;;;;;;2.87;78.89;102246.19;108752;1261;72914;-79
2023/02/27 09:18:06;;;;;;;7.70;3.80;;;;;;;2.94;78.30;102250.46;108815;1257;69701;-78
2023/02/27 09:20:36;;;;;;;8.00;3.70;;;;;;;3.02;78.43;102255.45;108874;1257;71468;-78
2023/02/27 09:23:03;;;;;;;9.90;4.40;;;;;;;3.12;78.25;102251.73;108742;1257;61252;-79
2023/02/27 09:25:31;;;;;;;7.00;3.90;;;;;;;3.26;77.73;102246.75;108876;1260;60752;-79
2023/02/27 09:27:58;;;;;;;8.50;4.20;;;;;;;3.38;77.31;102247.27;108898;1257;73453;-79
2023/02/27 09:30:27;;;;;;;10.20;4.00;;;;;;;3.48;76.60;102249.48;108903;1257;70508;-78
2023/02/27 09:32:54;;;;;;;8.00;3.70;;;;;;;3.54;76.32;102245.61;108797;1257;71050;-78
2023/02/27 09:35:22;;;;;;;7.00;4.10;;;;;;;3.56;75.58;102239.71;108814;1257;60898;-79
2023/02/27 09:37:49;;;;;;;9.30;4.10;;;;;;;3.63;76.01;102248.58;108754;1257;59576;-78
2023/02/27 09:40:19;;;;;;;6.30;3.90;;;;;;;3.75;76.16;102246.83;108908;1257;74346;-79
2023/02/27 09:42:47;;;;;;;7.00;3.80;;;;;;;3.83;75.89;102248.23;108838;1260;71187;-78
2023/02/27 09:45:23;;;;;;;8.20;4.10;;;;;;;3.93;75.46;102255.20;108792;1257;72604;-78
2023/02/27 09:47:57;;;;;;;9.30;4.00;;;;;;;3.99;74.86;102258.66;108791;1256;59676;-78
2023/02/27 09:50:29;;;;;;;5.70;3.10;;;;;;;4.14;74.93;102253.92;108762;1257;60071;-78
2023/02/27 09:52:59;;;;;;;7.30;3.50;;;;;;;4.35;75.01;102248.55;108835;1257;75175;-78
2023/02/27 09:55:29;;;;;;;6.00;3.10;;;;;;;4.49;72.95;102245.59;108851;1257;69692;-78
2023/02/27 09:58:23;;;;;;;9.50;3.50;;;;;;;4.50;72.09;102245.02;108738;1256;71747;-78
2023/02/27 10:00:56;;;;;;;8.90;2.80;;;;;;;4.48;72.28;102243.19;108802;1257;59773;-78
2023/02/27 10:03:34;;;;;;;6.60;3.00;;;;;;;4.56;72.53;102244.66;108942;1257;59360;-77
2023/02/27 10:06:12;;;;;;;7.40;3.00;;;;;;;4.74;72.29;102248.19;108901;1260;73468;-79
2023/02/27 10:09:09;;;;;;;9.40;2.70;;;;;;;5.05;72.57;102244.79;108889;1257;69383;-78
2023/02/27 10:12:14;;;;;;;7.60;2.50;;;;;;;5.31;71.32;102240.60;108975;1260;71130;-78
2023/02/27 10:14:51;;;;;;;7.00;2.60;;;;;;;5.56;70.54;102245.81;108928;1257;59996;-78
2023/02/27 10:17:43;;;;;;;5.50;2.40;;;;;;;5.60;68.23;102241.10;108897;1257;59646;-79
2023/02/27 10:20:21;;;;;;;7.30;2.70;;;;;;;5.55;67.98;102240.60;108950;1257;73268;-78
2023/02/27 10:22:50;;;;;;;5.20;2.80;;;;;;;5.57;68.64;102248.20;108906;1257;71005;-79
2023/02/27 10:25:18;;;;;;;7.50;2.80;;;;;;;5.61;68.30;102249.33;108836;1257;72460;-79
2023/02/27 10:28:11;;;;;;;7.30;2.90;;;;;;;5.54;67.34;102248.20;108954;1257;61209;-79
2023/02/27 10:30:39;;;;;;;5.60;2.90;;;;;;;5.58;68.06;102252.46;108951;1257;59063;-79
2023/02/27 10:33:06;;;;;;;6.30;2.90;;;;;;;5.72;67.96;102250.99;108830;1257;74697;-79
2023/02/27 10:35:36;;;;;;;5.20;2.20;;;;;;;5.89;67.96;102252.11;108848;1257;71579;-79
2023/02/27 10:38:10;;;;;;;7.10;2.60;;;;;;;6.07;67.48;102257.61;108809;1257;71078;-79
2023/02/27 10:40:39;;;;;;;4.60;2.20;;;;;;;6.23;66.10;102259.66;108849;1257;59650;-79
2023/02/27 10:43:06;;;;;;;7.00;2.30;;;;;;;6.32;66.01;102257.27;108719;1257;59415;-79
2023/02/27 10:45:33;;;;;;;5.20;2.30;;;;;;;6.36;64.84;102255.20;108907;1258;73834;-79
2023/02/27 10:48:01;;;;;;;5.10;2.20;;;;;;;6.45;65.00;102253.55;108835;1260;69676;-79
2023/02/27 10:50:32;;;;;;;6.20;2.00;;;;;;;6.55;64.15;102246.27;108898;1257;71168;-79
2023/02/27 10:53:01;;;;;;;3.50;1.80;;;;;;;6.58;63.43;102247.17;108853;1257;60403;-79
2023/02/27 10:55:31;;;;;;;6.30;2.30;;;;;;;6.44;61.53;102247.77;108737;1257;60372;-79
2023/02/27 10:58:00;;;;;;;5.00;2.40;;;;;;;6.20;61.36;102247.91;108952;1257;73248;-79
2023/02/27 11:00:34;;;;;;;6.30;2.20;;;;;;;6.16;62.83;102249.47;108935;1256;71608;-79
2023/02/27 11:03:01;;;;;;;4.20;2.00;;;;;;;6.10;62.27;102245.05;108854;1256;71102;-79
2023/02/27 11:05:35;;;;;;;6.20;2.40;;;;;;;6.09;62.63;102243.73;108925;1257;60694;-79
2023/02/27 11:08:25;;;;;;;3.60;1.90;;;;;;;6.15;62.61;102243.17;108969;1256;61226;-79
2023/02/27 11:11:12;;;;;;;6.30;2.10;;;;;;;6.11;62.44;102244.15;108819;1256;73468;-79
2023/02/27 11:13:41;;;;;;;6.40;2.30;;;;;;;6.18;62.63;102241.94;108858;1257;72613;-79
2023/02/27 11:16:22;;;;;;;6.30;2.30;;;;;;;6.28;62.79;102235.02;108814;1261;71117;-79
2023/02/27 11:18:50;;;;;;;5.80;1.90;;;;;;;6.36;61.95;102233.95;108785;1257;61476;-79
2023/02/27 11:21:18;;;;;;;6.70;2.30;;;;;;;6.26;61.29;102232.02;108824;1256;59002;-79
2023/02/27 11:23:51;;;;;;;4.40;1.90;;;;;;;6.19;60.31;102225.52;108867;1257;74451;-79
2023/02/27 11:26:26;;;;;;;5.10;2.20;;;;;;;6.21;61.32;102224.29;108860;1256;71636;-79
2023/02/27 11:29:17;;;;;;;5.80;2.60;;;;;;;6.32;62.01;102227.36;108823;1256;70460;-79
2023/02/27 11:32:01;;;;;;;4.60;2.30;;;;;;;6.48;61.33;102225.34;108734;1256;59724;-79
2023/02/27 11:34:38;;;;;;;5.60;2.10;;;;;;;6.61;60.62;102223.03;108878;1256;58992;-79
2023/02/27 11:37:17;;;;;;;3.80;1.90;;;;;;;6.67;60.11;102223.27;108849;1257;74376;-79
2023/02/27 11:40:04;;;;;;;5.50;1.90;;;;;;;6.68;59.68;102222.48;108860;1256;72042;-79
2023/02/27 11:42:34;;;;;;;4.20;1.90;;;;;;;6.73;59.08;102221.06;108771;1257;71274;-79
2023/02/27 11:45:31;;;;;;;4.60;1.80;;;;;;;6.85;58.64;102220.23;108842;1257;60255;-79
2023/02/27 11:48:27;;;;;;;4.90;2.10;;;;;;;7.03;58.31;102219.10;108849;1256;59314;-79